UAL154 PHNL-PKMJ
Flight info
| Callsign | UAL154 |
|---|---|
| Flight time | 4h 43m |
| Altitude | 32000 |
| Route | OPIHI3 CHOKO R584 MAZZA/N0467F340 10N177E EFAHU |
| Aircraft | B38M/M-SDE1FGHILORVWXY/HB1 |
Departure
| Time | 2026-05-04 17:26 |
|---|---|
| Airport | Daniel K. Inouye International Airport (PHNL) |
Arrival
| Time | 2026-05-04 22:09 |
|---|---|
| Airport | Marshall Islands International Airport (PKMJ) |
| Time | Latitude | Longitude | Altitude | Speed | Heading |
|---|---|---|---|---|---|
| 2026-05-04 17:00 | 21.33137 | -157.92122 | 17 ft | 0 kts | 8° |
| 2026-05-04 17:11 | 21.33124 | -157.92124 | 26 ft | 4 kts | 8° |
| 2026-05-04 17:12 | 21.33099 | -157.92128 | 26 ft | 2 kts | 8° |
| 2026-05-04 17:12 | 21.33050 | -157.92136 | 26 ft | 4 kts | 9° |
| 2026-05-04 17:13 | 21.32976 | -157.92149 | 26 ft | 4 kts | 9° |
| 2026-05-04 17:14 | 21.32895 | -157.92163 | 26 ft | 4 kts | 9° |
| 2026-05-04 17:14 | 21.32868 | -157.92168 | 26 ft | 4 kts | 9° |
| 2026-05-04 17:14 | 21.32816 | -157.92171 | 26 ft | 4 kts | 351° |
| 2026-05-04 17:15 | 21.32790 | -157.92163 | 27 ft | 4 kts | 329° |
| 2026-05-04 17:15 | 21.32773 | -157.92118 | 26 ft | 4 kts | 270° |
| 2026-05-04 17:16 | 21.32773 | -157.92106 | 26 ft | 0 kts | 270° |
| 2026-05-04 17:18 | 21.32773 | -157.92119 | 26 ft | 4 kts | 270° |
| 2026-05-04 17:18 | 21.32775 | -157.92240 | 27 ft | 12 kts | 271° |
| 2026-05-04 17:19 | 21.32775 | -157.92482 | 27 ft | 20 kts | 269° |
| 2026-05-04 17:19 | 21.32743 | -157.92825 | 27 ft | 26 kts | 262° |
| 2026-05-04 17:20 | 21.32746 | -157.93211 | 27 ft | 26 kts | 270° |
| 2026-05-04 17:20 | 21.32742 | -157.93601 | 27 ft | 27 kts | 271° |
| 2026-05-04 17:20 | 21.32742 | -157.93805 | 27 ft | 28 kts | 270° |
| 2026-05-04 17:21 | 21.32745 | -157.94219 | 27 ft | 28 kts | 270° |
| 2026-05-04 17:21 | 21.32435 | -157.94320 | 27 ft | 27 kts | 185° |
| 2026-05-04 17:22 | 21.32251 | -157.94353 | 27 ft | 27 kts | 207° |
| 2026-05-04 17:22 | 21.32090 | -157.94452 | 27 ft | 27 kts | 207° |
| 2026-05-04 17:23 | 21.31576 | -157.94652 | 27 ft | 27 kts | 173° |
| 2026-05-04 17:23 | 21.31392 | -157.94627 | 27 ft | 27 kts | 172° |
| 2026-05-04 17:23 | 21.31010 | -157.94576 | 27 ft | 28 kts | 174° |
| 2026-05-04 17:24 | 21.30815 | -157.94572 | 27 ft | 28 kts | 180° |
| 2026-05-04 17:24 | 21.30685 | -157.94480 | 29 ft | 31 kts | 91° |
| 2026-05-04 17:25 | 21.30682 | -157.93985 | 32 ft | 101 kts | 90° |
| 2026-05-04 17:25 | 21.30680 | -157.91684 | 242 ft | 189 kts | 87° |
| 2026-05-04 17:26 | 21.29967 | -157.89144 | 1938 ft | 194 kts | 140° |
| 2026-05-04 17:26 | 21.25304 | -157.87918 | 3521 ft | 253 kts | 163° |
| 2026-05-04 17:27 | 21.21808 | -157.88518 | 5363 ft | 265 kts | 216° |
| 2026-05-04 17:27 | 21.19005 | -157.91284 | 7006 ft | 274 kts | 221° |
| 2026-05-04 17:28 | 21.16126 | -157.94078 | 8533 ft | 282 kts | 220° |
| 2026-05-04 17:29 | 21.11628 | -157.98424 | 10487 ft | 306 kts | 221° |
| 2026-05-04 17:29 | 21.06995 | -158.03831 | 11595 ft | 345 kts | 248° |
| 2026-05-04 17:30 | 21.05788 | -158.11548 | 13528 ft | 355 kts | 263° |
| 2026-05-04 17:31 | 21.05312 | -158.16804 | 14624 ft | 361 kts | 263° |
| 2026-05-04 17:31 | 21.04592 | -158.24917 | 16184 ft | 368 kts | 264° |
| 2026-05-04 17:32 | 21.04105 | -158.30400 | 17137 ft | 374 kts | 265° |
| 2026-05-04 17:33 | 21.03353 | -158.38804 | 18538 ft | 381 kts | 265° |
| 2026-05-04 17:33 | 21.03099 | -158.41629 | 18941 ft | 383 kts | 265° |
| 2026-05-04 17:34 | 21.02326 | -158.50216 | 20140 ft | 388 kts | 265° |
| 2026-05-04 17:34 | 21.02065 | -158.53105 | 20510 ft | 391 kts | 265° |
| 2026-05-04 17:35 | 21.01271 | -158.61856 | 21751 ft | 394 kts | 265° |
| 2026-05-04 17:35 | 21.00735 | -158.67727 | 22419 ft | 400 kts | 265° |
| 2026-05-04 17:35 | 21.00463 | -158.70707 | 22808 ft | 401 kts | 265° |
| 2026-05-04 17:36 | 21.00190 | -158.73682 | 23205 ft | 402 kts | 265° |
| 2026-05-04 17:36 | 20.99917 | -158.76657 | 23569 ft | 404 kts | 265° |
| 2026-05-04 17:36 | 20.99639 | -158.79672 | 23783 ft | 409 kts | 265° |
| 2026-05-04 17:36 | 20.99360 | -158.82706 | 24107 ft | 409 kts | 265° |
| 2026-05-04 17:37 | 20.99083 | -158.85701 | 24443 ft | 410 kts | 265° |
| 2026-05-04 17:37 | 20.98801 | -158.88753 | 24677 ft | 414 kts | 265° |
| 2026-05-04 17:37 | 20.98515 | -158.91828 | 24916 ft | 417 kts | 265° |
| 2026-05-04 17:37 | 20.98229 | -158.94914 | 25244 ft | 417 kts | 265° |
| 2026-05-04 17:38 | 20.97942 | -158.97999 | 25571 ft | 418 kts | 265° |
| 2026-05-04 17:38 | 20.97480 | -159.01081 | 25780 ft | 422 kts | 253° |
| 2026-05-04 17:38 | 20.96543 | -159.04052 | 26082 ft | 423 kts | 253° |
| 2026-05-04 17:38 | 20.95626 | -159.07056 | 26367 ft | 425 kts | 253° |
| 2026-05-04 17:39 | 20.93750 | -159.13088 | 26891 ft | 429 kts | 252° |
| 2026-05-04 17:39 | 20.92800 | -159.16119 | 27187 ft | 430 kts | 252° |
| 2026-05-04 17:39 | 20.91846 | -159.19159 | 27401 ft | 433 kts | 252° |
| 2026-05-04 17:40 | 20.90884 | -159.22225 | 27721 ft | 434 kts | 252° |
| 2026-05-04 17:40 | 20.89921 | -159.25288 | 27944 ft | 436 kts | 252° |
| 2026-05-04 17:40 | 20.88953 | -159.28366 | 28187 ft | 438 kts | 252° |
| 2026-05-04 17:40 | 20.87981 | -159.31454 | 28484 ft | 439 kts | 252° |
| 2026-05-04 17:41 | 20.87005 | -159.34555 | 28666 ft | 442 kts | 252° |
| 2026-05-04 17:41 | 20.86022 | -159.37674 | 28970 ft | 442 kts | 252° |
| 2026-05-04 17:41 | 20.85035 | -159.40803 | 29183 ft | 445 kts | 252° |
| 2026-05-04 17:41 | 20.84046 | -159.43938 | 29432 ft | 446 kts | 252° |
| 2026-05-04 17:42 | 20.83054 | -159.47079 | 29690 ft | 447 kts | 252° |
| 2026-05-04 17:42 | 20.82055 | -159.50239 | 29935 ft | 448 kts | 252° |
| 2026-05-04 17:42 | 20.81069 | -159.53358 | 30147 ft | 449 kts | 252° |
| 2026-05-04 17:42 | 20.80070 | -159.56515 | 30107 ft | 447 kts | 252° |
| 2026-05-04 17:43 | 20.78085 | -159.62783 | 30119 ft | 446 kts | 252° |
| 2026-05-04 17:43 | 20.76093 | -159.69062 | 30117 ft | 445 kts | 252° |
| 2026-05-04 17:44 | 20.74103 | -159.75328 | 30119 ft | 445 kts | 252° |
| 2026-05-04 17:44 | 20.72107 | -159.81602 | 30121 ft | 446 kts | 252° |
| 2026-05-04 17:45 | 20.70111 | -159.87867 | 30119 ft | 446 kts | 252° |
| 2026-05-04 17:45 | 20.68118 | -159.94114 | 30113 ft | 445 kts | 252° |
| 2026-05-04 17:46 | 20.66135 | -160.00326 | 30108 ft | 444 kts | 252° |
| 2026-05-04 17:46 | 20.64132 | -160.06585 | 30114 ft | 444 kts | 252° |
| 2026-05-04 17:47 | 20.62130 | -160.12838 | 30119 ft | 444 kts | 252° |
| 2026-05-04 17:47 | 20.60127 | -160.19082 | 30122 ft | 445 kts | 252° |
| 2026-05-04 17:48 | 20.58121 | -160.25329 | 30115 ft | 445 kts | 252° |
| 2026-05-04 17:48 | 20.56114 | -160.31567 | 30108 ft | 445 kts | 252° |
| 2026-05-04 17:49 | 20.54105 | -160.37806 | 30111 ft | 444 kts | 252° |
| 2026-05-04 17:49 | 20.52092 | -160.44048 | 30112 ft | 444 kts | 252° |
| 2026-05-04 17:50 | 20.50090 | -160.50247 | 30120 ft | 445 kts | 252° |
| 2026-05-04 17:50 | 20.48071 | -160.56487 | 30123 ft | 445 kts | 252° |
| 2026-05-04 17:51 | 20.46053 | -160.62719 | 30114 ft | 445 kts | 252° |
| 2026-05-04 17:51 | 20.44034 | -160.68947 | 30108 ft | 445 kts | 252° |
| 2026-05-04 17:52 | 20.42012 | -160.75176 | 30111 ft | 444 kts | 252° |
| 2026-05-04 17:52 | 20.39988 | -160.81398 | 30114 ft | 444 kts | 252° |
| 2026-05-04 17:53 | 20.37952 | -160.87620 | 30107 ft | 444 kts | 250° |
| 2026-05-04 17:53 | 20.35555 | -160.93700 | 30117 ft | 446 kts | 248° |
| 2026-05-04 17:54 | 20.33574 | -160.98769 | 30116 ft | 445 kts | 249° |
| 2026-05-04 17:54 | 20.31200 | -161.04860 | 30108 ft | 445 kts | 249° |
| 2026-05-04 17:55 | 20.28823 | -161.10953 | 30110 ft | 445 kts | 249° |
| 2026-05-04 17:55 | 20.26443 | -161.17047 | 30113 ft | 445 kts | 248° |
| 2026-05-04 17:56 | 20.24063 | -161.23133 | 30110 ft | 445 kts | 249° |
| 2026-05-04 17:56 | 20.21679 | -161.29226 | 30109 ft | 445 kts | 248° |
| 2026-05-04 17:57 | 20.19295 | -161.35308 | 30113 ft | 445 kts | 248° |
| 2026-05-04 17:57 | 20.16908 | -161.41391 | 30113 ft | 445 kts | 248° |
| 2026-05-04 17:58 | 20.14519 | -161.47472 | 30107 ft | 445 kts | 248° |
| 2026-05-04 17:58 | 20.12142 | -161.53514 | 30103 ft | 445 kts | 248° |
| 2026-05-04 17:59 | 20.09754 | -161.59578 | 30106 ft | 444 kts | 248° |
| 2026-05-04 18:00 | 20.06167 | -161.68676 | 30104 ft | 444 kts | 248° |
| 2026-05-04 18:00 | 20.03774 | -161.74734 | 30113 ft | 444 kts | 248° |
| 2026-05-04 18:01 | 20.01381 | -161.80788 | 30108 ft | 444 kts | 248° |
| 2026-05-04 18:01 | 19.98981 | -161.86848 | 30108 ft | 444 kts | 248° |
| 2026-05-04 18:02 | 19.95379 | -161.95936 | 30109 ft | 445 kts | 248° |
| 2026-05-04 18:02 | 19.92969 | -162.02006 | 30101 ft | 445 kts | 248° |
| 2026-05-04 18:03 | 19.90560 | -162.08067 | 30102 ft | 445 kts | 248° |
| 2026-05-04 18:03 | 19.88149 | -162.14126 | 30099 ft | 445 kts | 248° |
| 2026-05-04 18:04 | 19.85760 | -162.20121 | 30100 ft | 443 kts | 248° |
| 2026-05-04 18:05 | 19.82154 | -162.29161 | 30105 ft | 443 kts | 248° |
| 2026-05-04 18:05 | 19.79745 | -162.35189 | 30105 ft | 443 kts | 248° |
| 2026-05-04 18:06 | 19.76126 | -162.44236 | 30102 ft | 443 kts | 248° |
| 2026-05-04 18:06 | 19.73711 | -162.50264 | 30103 ft | 443 kts | 248° |
| 2026-05-04 18:07 | 19.71296 | -162.56285 | 30102 ft | 444 kts | 248° |
| 2026-05-04 18:07 | 19.68876 | -162.62314 | 30099 ft | 444 kts | 248° |
| 2026-05-04 18:08 | 19.66468 | -162.68306 | 30098 ft | 444 kts | 248° |
| 2026-05-04 18:08 | 19.64105 | -162.74364 | 30098 ft | 444 kts | 249° |
| 2026-05-04 18:09 | 19.59395 | -162.86451 | 30107 ft | 443 kts | 248° |
| 2026-05-04 18:10 | 19.57039 | -162.92486 | 30109 ft | 443 kts | 248° |
| 2026-05-04 18:10 | 19.54680 | -162.98520 | 30103 ft | 443 kts | 248° |
| 2026-05-04 18:11 | 19.52313 | -163.04568 | 30105 ft | 443 kts | 248° |
| 2026-05-04 18:11 | 19.49966 | -163.10559 | 30098 ft | 443 kts | 248° |
| 2026-05-04 18:12 | 19.47599 | -163.16593 | 30093 ft | 443 kts | 248° |
| 2026-05-04 18:12 | 19.45231 | -163.22623 | 30100 ft | 443 kts | 248° |
| 2026-05-04 18:13 | 19.42861 | -163.28652 | 30093 ft | 443 kts | 248° |
| 2026-05-04 18:14 | 19.39298 | -163.37703 | 30106 ft | 444 kts | 248° |
| 2026-05-04 18:14 | 19.36920 | -163.43736 | 30093 ft | 444 kts | 248° |
| 2026-05-04 18:15 | 19.32162 | -163.55785 | 30098 ft | 443 kts | 248° |
| 2026-05-04 18:16 | 19.29786 | -163.61791 | 30102 ft | 443 kts | 248° |
| 2026-05-04 18:16 | 19.27419 | -163.67769 | 30092 ft | 443 kts | 248° |
| 2026-05-04 18:17 | 19.23839 | -163.76795 | 30106 ft | 444 kts | 248° |
| 2026-05-04 18:18 | 19.20253 | -163.85822 | 30091 ft | 443 kts | 248° |
| 2026-05-04 18:18 | 19.17862 | -163.91834 | 30100 ft | 443 kts | 248° |
| 2026-05-04 18:19 | 19.14271 | -164.00851 | 30089 ft | 443 kts | 248° |
| 2026-05-04 18:19 | 19.11874 | -164.06859 | 30094 ft | 444 kts | 248° |
| 2026-05-04 18:20 | 19.09475 | -164.12865 | 30082 ft | 443 kts | 248° |
| 2026-05-04 18:20 | 19.07078 | -164.18864 | 30092 ft | 443 kts | 248° |
| 2026-05-04 18:21 | 19.04679 | -164.24856 | 30089 ft | 443 kts | 248° |
| 2026-05-04 18:21 | 19.02280 | -164.30845 | 30089 ft | 442 kts | 248° |
| 2026-05-04 18:22 | 18.99879 | -164.36833 | 30095 ft | 443 kts | 248° |
| 2026-05-04 18:22 | 18.97473 | -164.42824 | 30098 ft | 443 kts | 248° |
| 2026-05-04 18:23 | 18.95080 | -164.48778 | 30094 ft | 443 kts | 248° |
| 2026-05-04 18:23 | 18.92671 | -164.54765 | 30093 ft | 443 kts | 248° |
| 2026-05-04 18:24 | 18.90257 | -164.60758 | 30089 ft | 443 kts | 248° |
| 2026-05-04 18:24 | 18.87845 | -164.66739 | 30095 ft | 443 kts | 248° |
| 2026-05-04 18:25 | 18.85432 | -164.72716 | 30086 ft | 443 kts | 248° |
| 2026-05-04 18:25 | 18.83032 | -164.78657 | 30086 ft | 443 kts | 248° |
| 2026-05-04 18:26 | 18.80597 | -164.84674 | 30088 ft | 442 kts | 247° |
| 2026-05-04 18:26 | 18.78198 | -164.90599 | 30095 ft | 442 kts | 247° |
| 2026-05-04 18:27 | 18.75778 | -164.96568 | 30086 ft | 442 kts | 247° |
| 2026-05-04 18:27 | 18.73357 | -165.02532 | 30088 ft | 442 kts | 247° |
| 2026-05-04 18:28 | 18.70934 | -165.08498 | 30086 ft | 443 kts | 247° |
| 2026-05-04 18:28 | 18.68504 | -165.14470 | 30085 ft | 443 kts | 247° |
| 2026-05-04 18:29 | 18.66073 | -165.20442 | 30091 ft | 443 kts | 247° |
| 2026-05-04 18:29 | 18.63642 | -165.26407 | 30091 ft | 443 kts | 247° |
| 2026-05-04 18:30 | 18.60007 | -165.35312 | 30084 ft | 443 kts | 247° |
| 2026-05-04 18:31 | 18.57573 | -165.41269 | 30085 ft | 443 kts | 247° |
| 2026-05-04 18:31 | 18.55134 | -165.47229 | 30089 ft | 443 kts | 247° |
| 2026-05-04 18:32 | 18.52695 | -165.53186 | 30077 ft | 442 kts | 247° |
| 2026-05-04 18:32 | 18.50256 | -165.59135 | 30083 ft | 442 kts | 247° |
| 2026-05-04 18:33 | 18.47819 | -165.65075 | 30089 ft | 442 kts | 247° |
| 2026-05-04 18:33 | 18.45376 | -165.71021 | 30083 ft | 442 kts | 247° |
| 2026-05-04 18:34 | 18.42932 | -165.76965 | 30084 ft | 442 kts | 247° |
| 2026-05-04 18:34 | 18.40505 | -165.82860 | 30084 ft | 442 kts | 246° |
| 2026-05-04 18:35 | 18.38057 | -165.88801 | 30076 ft | 442 kts | 246° |
| 2026-05-04 18:35 | 18.35609 | -165.94733 | 30080 ft | 442 kts | 246° |
| 2026-05-04 18:36 | 18.33156 | -166.00674 | 30084 ft | 442 kts | 246° |
| 2026-05-04 18:36 | 18.30704 | -166.06606 | 30083 ft | 442 kts | 246° |
| 2026-05-04 18:37 | 18.28247 | -166.12544 | 30086 ft | 442 kts | 246° |
| 2026-05-04 18:37 | 18.25794 | -166.18466 | 30088 ft | 442 kts | 246° |
| 2026-05-04 18:38 | 18.23336 | -166.24394 | 30081 ft | 442 kts | 246° |
| 2026-05-04 18:38 | 18.20877 | -166.30318 | 30076 ft | 442 kts | 246° |
| 2026-05-04 18:39 | 18.18431 | -166.36205 | 30078 ft | 442 kts | 246° |
| 2026-05-04 18:39 | 18.15971 | -166.42120 | 30079 ft | 442 kts | 246° |
| 2026-05-04 18:40 | 18.13504 | -166.48044 | 30079 ft | 442 kts | 246° |
| 2026-05-04 18:40 | 18.11035 | -166.53968 | 30079 ft | 442 kts | 246° |
| 2026-05-04 18:41 | 18.08566 | -166.59888 | 30085 ft | 442 kts | 246° |
| 2026-05-04 18:41 | 18.06092 | -166.65810 | 30086 ft | 443 kts | 246° |
| 2026-05-04 18:42 | 18.03616 | -166.71733 | 30084 ft | 443 kts | 246° |
| 2026-05-04 18:42 | 18.01140 | -166.77651 | 30080 ft | 442 kts | 246° |
| 2026-05-04 18:43 | 17.98681 | -166.83522 | 30079 ft | 442 kts | 246° |
| 2026-05-04 18:43 | 17.96197 | -166.89446 | 30074 ft | 443 kts | 246° |
| 2026-05-04 18:44 | 17.93713 | -166.95365 | 30080 ft | 442 kts | 246° |
| 2026-05-04 18:44 | 17.91228 | -167.01278 | 30077 ft | 442 kts | 246° |
| 2026-05-04 18:45 | 17.88741 | -167.07191 | 30079 ft | 442 kts | 246° |
| 2026-05-04 18:45 | 17.86253 | -167.13101 | 30081 ft | 443 kts | 246° |
| 2026-05-04 18:46 | 17.83764 | -167.19008 | 30078 ft | 443 kts | 246° |
| 2026-05-04 18:46 | 17.81290 | -167.24874 | 30079 ft | 443 kts | 246° |
| 2026-05-04 18:47 | 17.78793 | -167.30788 | 30073 ft | 444 kts | 246° |
| 2026-05-04 18:47 | 17.76290 | -167.36710 | 30078 ft | 443 kts | 246° |
| 2026-05-04 18:48 | 17.74212 | -167.41622 | 30077 ft | 443 kts | 246° |
| 2026-05-04 18:48 | 17.71713 | -167.47524 | 30076 ft | 443 kts | 246° |
| 2026-05-04 18:49 | 17.69211 | -167.53428 | 30079 ft | 443 kts | 246° |
| 2026-05-04 18:49 | 17.66702 | -167.59341 | 30078 ft | 443 kts | 245° |
| 2026-05-04 18:50 | 17.64200 | -167.65234 | 30081 ft | 443 kts | 245° |
| 2026-05-04 18:50 | 17.61692 | -167.71133 | 30070 ft | 443 kts | 245° |
| 2026-05-04 18:51 | 17.59184 | -167.77028 | 30062 ft | 443 kts | 245° |
| 2026-05-04 18:51 | 17.56674 | -167.82922 | 30066 ft | 442 kts | 245° |
| 2026-05-04 18:52 | 17.54163 | -167.88810 | 30074 ft | 442 kts | 245° |
| 2026-05-04 18:52 | 17.51658 | -167.94680 | 30074 ft | 443 kts | 245° |
| 2026-05-04 18:53 | 17.49140 | -168.00575 | 30075 ft | 442 kts | 245° |
| 2026-05-04 18:53 | 17.46628 | -168.06452 | 30074 ft | 443 kts | 245° |
| 2026-05-04 18:54 | 17.44111 | -168.12331 | 30074 ft | 443 kts | 245° |
| 2026-05-04 18:54 | 17.41607 | -168.18177 | 30072 ft | 443 kts | 245° |
| 2026-05-04 18:55 | 17.39090 | -168.24047 | 30071 ft | 442 kts | 245° |
| 2026-05-04 18:55 | 17.35306 | -168.32862 | 30077 ft | 442 kts | 245° |
| 2026-05-04 18:56 | 17.32783 | -168.38732 | 30074 ft | 443 kts | 245° |
| 2026-05-04 18:56 | 17.30261 | -168.44593 | 30071 ft | 442 kts | 245° |
| 2026-05-04 18:57 | 17.27734 | -168.50461 | 30065 ft | 442 kts | 245° |
| 2026-05-04 18:57 | 17.25206 | -168.56326 | 30066 ft | 442 kts | 245° |
| 2026-05-04 18:58 | 17.22678 | -168.62185 | 30073 ft | 441 kts | 245° |
| 2026-05-04 18:58 | 17.20166 | -168.68002 | 30078 ft | 441 kts | 245° |
| 2026-05-04 18:59 | 17.17633 | -168.73861 | 30080 ft | 442 kts | 245° |
| 2026-05-04 18:59 | 17.15095 | -168.79728 | 30076 ft | 442 kts | 245° |
| 2026-05-04 19:00 | 17.12563 | -168.85574 | 30073 ft | 442 kts | 245° |
| 2026-05-04 19:00 | 17.10026 | -168.91427 | 30073 ft | 442 kts | 245° |
| 2026-05-04 19:01 | 17.07488 | -168.97278 | 30065 ft | 442 kts | 245° |
| 2026-05-04 19:01 | 17.04952 | -169.03117 | 30067 ft | 441 kts | 245° |
| 2026-05-04 19:02 | 17.02428 | -169.08923 | 30061 ft | 441 kts | 245° |
| 2026-05-04 19:02 | 16.99885 | -169.14766 | 30068 ft | 442 kts | 245° |
| 2026-05-04 19:03 | 16.97338 | -169.20615 | 30073 ft | 442 kts | 245° |
| 2026-05-04 19:03 | 16.94788 | -169.26464 | 30077 ft | 442 kts | 245° |
| 2026-05-04 19:04 | 16.92239 | -169.32307 | 30072 ft | 443 kts | 245° |
| 2026-05-04 19:04 | 16.89692 | -169.38140 | 30065 ft | 443 kts | 245° |
| 2026-05-04 19:05 | 16.87136 | -169.43987 | 30063 ft | 443 kts | 245° |
| 2026-05-04 19:05 | 16.84578 | -169.49834 | 30054 ft | 443 kts | 245° |
| 2026-05-04 19:06 | 16.82021 | -169.55673 | 30058 ft | 442 kts | 245° |
| 2026-05-04 19:06 | 16.79474 | -169.61483 | 30068 ft | 442 kts | 245° |
| 2026-05-04 19:07 | 16.76910 | -169.67329 | 30065 ft | 442 kts | 245° |
| 2026-05-04 19:07 | 16.74335 | -169.73193 | 30070 ft | 442 kts | 245° |
| 2026-05-04 19:08 | 16.71788 | -169.78986 | 30070 ft | 443 kts | 245° |
| 2026-05-04 19:08 | 16.69219 | -169.84827 | 30069 ft | 445 kts | 245° |
| 2026-05-04 19:09 | 16.66645 | -169.90673 | 30061 ft | 444 kts | 245° |
| 2026-05-04 19:09 | 16.64068 | -169.96522 | 30051 ft | 445 kts | 245° |
| 2026-05-04 19:10 | 16.61487 | -170.02371 | 30053 ft | 443 kts | 245° |
| 2026-05-04 19:10 | 16.58913 | -170.08202 | 30053 ft | 443 kts | 245° |
| 2026-05-04 19:11 | 16.56332 | -170.14044 | 30056 ft | 442 kts | 245° |
| 2026-05-04 19:11 | 16.53745 | -170.19890 | 30057 ft | 445 kts | 245° |
| 2026-05-04 19:12 | 16.49871 | -170.28639 | 30051 ft | 445 kts | 245° |
| 2026-05-04 19:13 | 16.47273 | -170.34500 | 30047 ft | 444 kts | 245° |
| 2026-05-04 19:13 | 16.44678 | -170.40349 | 30058 ft | 444 kts | 245° |
| 2026-05-04 19:14 | 16.42083 | -170.46193 | 30058 ft | 443 kts | 245° |
| 2026-05-04 19:14 | 16.39487 | -170.52034 | 30061 ft | 444 kts | 245° |
| 2026-05-04 19:15 | 16.36891 | -170.57870 | 30062 ft | 446 kts | 245° |
| 2026-05-04 19:15 | 16.34282 | -170.63728 | 30054 ft | 447 kts | 245° |
| 2026-05-04 19:16 | 16.31672 | -170.69585 | 30045 ft | 446 kts | 245° |
| 2026-05-04 19:16 | 16.29062 | -170.75439 | 30043 ft | 446 kts | 245° |
| 2026-05-04 19:17 | 16.26449 | -170.81293 | 30041 ft | 446 kts | 245° |
| 2026-05-04 19:17 | 16.23831 | -170.87152 | 30044 ft | 446 kts | 245° |
| 2026-05-04 19:18 | 16.21210 | -170.93014 | 30049 ft | 446 kts | 244° |
| 2026-05-04 19:18 | 16.18583 | -170.98886 | 30053 ft | 448 kts | 244° |
| 2026-05-04 19:19 | 16.15966 | -171.04730 | 30055 ft | 448 kts | 244° |
| 2026-05-04 19:19 | 16.13334 | -171.10602 | 30053 ft | 448 kts | 244° |
| 2026-05-04 19:20 | 16.10698 | -171.16475 | 30052 ft | 448 kts | 244° |
| 2026-05-04 19:20 | 16.08065 | -171.22339 | 30045 ft | 448 kts | 244° |
| 2026-05-04 19:21 | 16.05429 | -171.28204 | 30043 ft | 448 kts | 244° |
| 2026-05-04 19:21 | 16.02787 | -171.34078 | 30042 ft | 449 kts | 244° |
| 2026-05-04 19:22 | 16.00138 | -171.39962 | 30041 ft | 449 kts | 244° |
| 2026-05-04 19:22 | 15.97485 | -171.45849 | 30044 ft | 449 kts | 244° |
| 2026-05-04 19:23 | 15.94847 | -171.51700 | 30050 ft | 449 kts | 244° |
| 2026-05-04 19:23 | 15.92140 | -171.57540 | 30049 ft | 449 kts | 243° |
| 2026-05-04 19:24 | 15.89372 | -171.63363 | 30045 ft | 450 kts | 243° |
| 2026-05-04 19:24 | 15.86611 | -171.69193 | 30045 ft | 450 kts | 242° |
| 2026-05-04 19:25 | 15.83839 | -171.75042 | 30041 ft | 451 kts | 242° |
| 2026-05-04 19:25 | 15.81085 | -171.80847 | 30039 ft | 448 kts | 243° |
| 2026-05-04 19:26 | 15.78337 | -171.86636 | 30037 ft | 447 kts | 242° |
| 2026-05-04 19:26 | 15.75585 | -171.92429 | 30033 ft | 447 kts | 243° |
| 2026-05-04 19:27 | 15.72830 | -171.98222 | 30034 ft | 447 kts | 243° |
| 2026-05-04 19:27 | 15.70090 | -172.03978 | 30037 ft | 447 kts | 242° |
| 2026-05-04 19:28 | 15.67336 | -172.09761 | 30034 ft | 446 kts | 242° |
| 2026-05-04 19:28 | 15.64581 | -172.15540 | 30044 ft | 446 kts | 243° |
| 2026-05-04 19:29 | 15.61827 | -172.21314 | 30046 ft | 447 kts | 242° |
| 2026-05-04 19:29 | 15.59067 | -172.27095 | 30045 ft | 447 kts | 242° |
| 2026-05-04 19:30 | 15.56306 | -172.32873 | 30041 ft | 447 kts | 242° |
| 2026-05-04 19:30 | 15.53549 | -172.38636 | 30044 ft | 447 kts | 242° |
| 2026-05-04 19:31 | 15.50783 | -172.44415 | 30034 ft | 448 kts | 242° |
| 2026-05-04 19:31 | 15.48056 | -172.50108 | 30032 ft | 442 kts | 243° |
| 2026-05-04 19:32 | 15.45321 | -172.55813 | 30032 ft | 442 kts | 243° |
| 2026-05-04 19:32 | 15.42580 | -172.61526 | 30036 ft | 442 kts | 242° |
| 2026-05-04 19:33 | 15.39843 | -172.67227 | 30034 ft | 441 kts | 242° |
| 2026-05-04 19:33 | 15.37103 | -172.72926 | 30038 ft | 441 kts | 242° |
| 2026-05-04 19:34 | 15.34364 | -172.78623 | 30044 ft | 442 kts | 242° |
| 2026-05-04 19:34 | 15.31623 | -172.84319 | 30041 ft | 443 kts | 242° |
| 2026-05-04 19:35 | 15.28883 | -172.90007 | 30033 ft | 442 kts | 242° |
| 2026-05-04 19:35 | 15.26141 | -172.95693 | 30031 ft | 442 kts | 242° |
| 2026-05-04 19:36 | 15.23398 | -173.01380 | 30025 ft | 442 kts | 242° |
| 2026-05-04 19:36 | 15.20650 | -173.07071 | 30027 ft | 441 kts | 242° |
| 2026-05-04 19:37 | 15.17916 | -173.12728 | 30026 ft | 440 kts | 243° |
| 2026-05-04 19:37 | 15.15168 | -173.18412 | 30031 ft | 442 kts | 242° |
| 2026-05-04 19:38 | 15.12409 | -173.24114 | 30038 ft | 441 kts | 243° |
| 2026-05-04 19:38 | 15.09657 | -173.29796 | 30034 ft | 441 kts | 242° |
| 2026-05-04 19:39 | 15.06904 | -173.35475 | 30029 ft | 442 kts | 242° |
| 2026-05-04 19:39 | 15.04617 | -173.40190 | 30017 ft | 442 kts | 242° |
| 2026-05-04 19:40 | 15.01859 | -173.45871 | 30024 ft | 441 kts | 242° |
| 2026-05-04 19:40 | 14.99104 | -173.51543 | 30019 ft | 441 kts | 242° |
| 2026-05-04 19:41 | 14.96346 | -173.57215 | 30026 ft | 441 kts | 242° |
| 2026-05-04 19:41 | 14.93579 | -173.62903 | 30029 ft | 442 kts | 243° |
| 2026-05-04 19:42 | 14.90827 | -173.68558 | 30036 ft | 441 kts | 242° |
| 2026-05-04 19:42 | 14.88044 | -173.74267 | 30032 ft | 443 kts | 242° |
| 2026-05-04 19:43 | 14.85276 | -173.79942 | 30031 ft | 443 kts | 243° |
| 2026-05-04 19:43 | 14.82541 | -173.85548 | 30020 ft | 438 kts | 243° |
| 2026-05-04 19:44 | 14.79786 | -173.91191 | 30012 ft | 437 kts | 243° |
| 2026-05-04 19:44 | 14.77064 | -173.96759 | 30010 ft | 438 kts | 243° |
| 2026-05-04 19:45 | 14.74315 | -174.02379 | 30029 ft | 438 kts | 243° |
| 2026-05-04 19:45 | 14.71563 | -174.08002 | 30026 ft | 437 kts | 243° |
| 2026-05-04 19:46 | 14.68812 | -174.13619 | 30032 ft | 437 kts | 243° |
| 2026-05-04 19:46 | 14.66059 | -174.19235 | 30033 ft | 439 kts | 243° |
| 2026-05-04 19:47 | 14.63302 | -174.24856 | 30027 ft | 439 kts | 243° |
| 2026-05-04 19:47 | 14.60550 | -174.30463 | 30025 ft | 438 kts | 243° |
| 2026-05-04 19:48 | 14.57796 | -174.36068 | 30015 ft | 438 kts | 243° |
| 2026-05-04 19:48 | 14.55059 | -174.41633 | 30011 ft | 437 kts | 243° |
| 2026-05-04 19:49 | 14.52303 | -174.47235 | 30017 ft | 437 kts | 243° |
| 2026-05-04 19:49 | 14.49552 | -174.52823 | 30017 ft | 435 kts | 244° |
| 2026-05-04 19:50 | 14.46790 | -174.58431 | 30025 ft | 435 kts | 244° |
| 2026-05-04 19:50 | 14.44041 | -174.64005 | 30023 ft | 436 kts | 244° |
| 2026-05-04 19:51 | 14.41296 | -174.69569 | 30023 ft | 436 kts | 244° |
| 2026-05-04 19:51 | 14.38563 | -174.75103 | 30018 ft | 436 kts | 244° |
| 2026-05-04 19:52 | 14.35808 | -174.80678 | 30013 ft | 436 kts | 244° |
| 2026-05-04 19:52 | 14.33055 | -174.86246 | 30013 ft | 435 kts | 244° |
| 2026-05-04 19:53 | 14.30302 | -174.91809 | 30015 ft | 435 kts | 244° |
| 2026-05-04 19:53 | 14.27548 | -174.97370 | 30018 ft | 435 kts | 244° |
| 2026-05-04 19:54 | 14.24791 | -175.02935 | 30024 ft | 435 kts | 244° |
| 2026-05-04 19:54 | 14.22035 | -175.08492 | 30022 ft | 436 kts | 244° |
| 2026-05-04 19:55 | 14.19281 | -175.14042 | 30021 ft | 436 kts | 244° |
| 2026-05-04 19:55 | 14.16525 | -175.19591 | 30005 ft | 436 kts | 244° |
| 2026-05-04 19:56 | 14.13769 | -175.25136 | 30011 ft | 433 kts | 244° |
| 2026-05-04 19:56 | 14.11023 | -175.30659 | 30016 ft | 433 kts | 244° |
| 2026-05-04 19:57 | 14.08293 | -175.36144 | 30018 ft | 433 kts | 244° |
| 2026-05-04 19:57 | 14.05545 | -175.41663 | 30015 ft | 433 kts | 244° |
| 2026-05-04 19:58 | 14.02795 | -175.47180 | 30011 ft | 433 kts | 244° |
| 2026-05-04 19:58 | 14.00046 | -175.52694 | 30013 ft | 433 kts | 244° |
| 2026-05-04 19:59 | 13.97294 | -175.58207 | 30015 ft | 433 kts | 244° |
| 2026-05-04 19:59 | 13.94545 | -175.63713 | 30016 ft | 433 kts | 244° |
| 2026-05-04 20:00 | 13.91790 | -175.69225 | 30015 ft | 433 kts | 244° |
| 2026-05-04 20:00 | 13.89037 | -175.74732 | 30018 ft | 432 kts | 244° |
| 2026-05-04 20:01 | 13.86280 | -175.80240 | 30017 ft | 432 kts | 244° |
| 2026-05-04 20:01 | 13.83527 | -175.85737 | 30015 ft | 432 kts | 244° |
| 2026-05-04 20:02 | 13.80771 | -175.91239 | 30010 ft | 430 kts | 244° |
| 2026-05-04 20:02 | 13.78048 | -175.96668 | 30017 ft | 430 kts | 244° |
| 2026-05-04 20:03 | 13.75309 | -176.02128 | 30017 ft | 430 kts | 244° |
| 2026-05-04 20:03 | 13.72565 | -176.07591 | 30009 ft | 430 kts | 244° |
| 2026-05-04 20:04 | 13.69822 | -176.13052 | 30007 ft | 429 kts | 244° |
| 2026-05-04 20:04 | 13.67079 | -176.18507 | 30018 ft | 429 kts | 244° |
| 2026-05-04 20:05 | 13.64330 | -176.23971 | 30014 ft | 429 kts | 244° |
| 2026-05-04 20:05 | 13.61588 | -176.29418 | 30012 ft | 429 kts | 244° |
| 2026-05-04 20:06 | 13.58843 | -176.34866 | 30007 ft | 429 kts | 244° |
| 2026-05-04 20:06 | 13.56097 | -176.40313 | 30007 ft | 429 kts | 244° |
| 2026-05-04 20:07 | 13.53367 | -176.45726 | 30007 ft | 429 kts | 244° |
| 2026-05-04 20:07 | 13.50618 | -176.51171 | 30004 ft | 429 kts | 244° |
| 2026-05-04 20:08 | 13.47868 | -176.56615 | 30008 ft | 429 kts | 244° |
| 2026-05-04 20:08 | 13.45123 | -176.62046 | 30005 ft | 428 kts | 244° |
| 2026-05-04 20:09 | 13.42380 | -176.67470 | 30004 ft | 428 kts | 244° |
| 2026-05-04 20:09 | 13.39634 | -176.72894 | 30008 ft | 428 kts | 244° |
| 2026-05-04 20:10 | 13.36891 | -176.78311 | 30007 ft | 428 kts | 244° |
| 2026-05-04 20:10 | 13.34145 | -176.83729 | 30008 ft | 428 kts | 244° |
| 2026-05-04 20:11 | 13.31401 | -176.89142 | 30010 ft | 428 kts | 244° |
| 2026-05-04 20:11 | 13.28652 | -176.94560 | 30011 ft | 428 kts | 244° |
| 2026-05-04 20:12 | 13.25900 | -176.99980 | 30003 ft | 428 kts | 244° |
| 2026-05-04 20:12 | 13.23149 | -177.05394 | 30003 ft | 428 kts | 244° |
| 2026-05-04 20:13 | 13.20397 | -177.10808 | 30007 ft | 428 kts | 244° |
| 2026-05-04 20:13 | 13.17643 | -177.16220 | 30001 ft | 428 kts | 244° |
| 2026-05-04 20:14 | 13.14890 | -177.21630 | 30002 ft | 428 kts | 244° |
| 2026-05-04 20:14 | 13.12134 | -177.27040 | 29995 ft | 427 kts | 244° |
| 2026-05-04 20:15 | 13.09382 | -177.32439 | 30006 ft | 428 kts | 244° |
| 2026-05-04 20:15 | 13.06641 | -177.37813 | 30003 ft | 427 kts | 244° |
| 2026-05-04 20:16 | 13.03885 | -177.43214 | 30025 ft | 429 kts | 244° |
| 2026-05-04 20:16 | 13.02503 | -177.45920 | 30308 ft | 428 kts | 244° |
| 2026-05-04 20:16 | 13.01118 | -177.48633 | 30542 ft | 430 kts | 244° |
| 2026-05-04 20:16 | 12.99733 | -177.51343 | 30798 ft | 430 kts | 244° |
| 2026-05-04 20:17 | 12.98341 | -177.54067 | 31036 ft | 431 kts | 244° |
| 2026-05-04 20:17 | 12.96950 | -177.56787 | 31284 ft | 431 kts | 244° |
| 2026-05-04 20:17 | 12.95556 | -177.59513 | 31552 ft | 431 kts | 244° |
| 2026-05-04 20:17 | 12.94164 | -177.62234 | 31817 ft | 431 kts | 244° |
| 2026-05-04 20:18 | 12.92766 | -177.64967 | 31994 ft | 433 kts | 244° |
| 2026-05-04 20:18 | 12.89976 | -177.70416 | 31994 ft | 431 kts | 244° |
| 2026-05-04 20:19 | 12.87190 | -177.75855 | 31996 ft | 431 kts | 244° |
| 2026-05-04 20:19 | 12.84418 | -177.81263 | 31998 ft | 431 kts | 244° |
| 2026-05-04 20:20 | 12.81629 | -177.86700 | 32000 ft | 431 kts | 244° |
| 2026-05-04 20:20 | 12.78841 | -177.92133 | 31996 ft | 431 kts | 244° |
| 2026-05-04 20:21 | 12.76047 | -177.97574 | 31987 ft | 431 kts | 244° |
| 2026-05-04 20:21 | 12.71867 | -178.05706 | 31995 ft | 430 kts | 244° |
| 2026-05-04 20:22 | 12.69081 | -178.11124 | 31995 ft | 430 kts | 244° |
| 2026-05-04 20:22 | 12.66292 | -178.16543 | 31995 ft | 430 kts | 244° |
| 2026-05-04 20:23 | 12.63507 | -178.21952 | 31996 ft | 430 kts | 244° |
| 2026-05-04 20:23 | 12.60716 | -178.27369 | 31993 ft | 430 kts | 244° |
| 2026-05-04 20:24 | 12.57925 | -178.32780 | 31993 ft | 430 kts | 244° |
| 2026-05-04 20:24 | 12.55135 | -178.38190 | 31994 ft | 430 kts | 244° |
| 2026-05-04 20:25 | 12.52341 | -178.43602 | 31993 ft | 430 kts | 244° |
| 2026-05-04 20:25 | 12.49565 | -178.48977 | 31993 ft | 430 kts | 244° |
| 2026-05-04 20:26 | 12.47224 | -178.53506 | 31990 ft | 430 kts | 244° |
| 2026-05-04 20:26 | 12.44427 | -178.58915 | 31991 ft | 430 kts | 244° |
| 2026-05-04 20:27 | 12.41646 | -178.64289 | 31991 ft | 430 kts | 244° |
| 2026-05-04 20:27 | 12.38852 | -178.69687 | 31985 ft | 429 kts | 244° |
| 2026-05-04 20:28 | 12.36064 | -178.75068 | 31991 ft | 428 kts | 244° |
| 2026-05-04 20:28 | 12.33276 | -178.80447 | 31990 ft | 428 kts | 244° |
| 2026-05-04 20:29 | 12.30487 | -178.85825 | 31987 ft | 428 kts | 244° |
| 2026-05-04 20:29 | 12.27697 | -178.91202 | 31988 ft | 428 kts | 244° |
| 2026-05-04 20:30 | 12.24907 | -178.96575 | 31988 ft | 428 kts | 244° |
| 2026-05-04 20:30 | 12.22112 | -179.01954 | 31987 ft | 428 kts | 244° |
| 2026-05-04 20:31 | 12.19319 | -179.07326 | 31989 ft | 428 kts | 244° |
| 2026-05-04 20:31 | 12.16526 | -179.12696 | 31988 ft | 428 kts | 244° |
| 2026-05-04 20:32 | 12.13730 | -179.18069 | 31988 ft | 428 kts | 244° |
| 2026-05-04 20:32 | 12.10934 | -179.23438 | 31988 ft | 428 kts | 244° |
| 2026-05-04 20:33 | 12.08156 | -179.28772 | 31985 ft | 428 kts | 244° |
| 2026-05-04 20:33 | 12.05356 | -179.34143 | 31985 ft | 428 kts | 244° |
| 2026-05-04 20:34 | 12.02557 | -179.39509 | 31978 ft | 428 kts | 244° |
| 2026-05-04 20:34 | 11.99761 | -179.44868 | 31982 ft | 428 kts | 244° |
| 2026-05-04 20:35 | 11.96960 | -179.50232 | 31985 ft | 427 kts | 244° |
| 2026-05-04 20:35 | 11.94163 | -179.55586 | 31985 ft | 427 kts | 244° |
| 2026-05-04 20:36 | 11.91362 | -179.60945 | 31982 ft | 427 kts | 244° |
| 2026-05-04 20:36 | 11.88578 | -179.66267 | 31979 ft | 428 kts | 244° |
| 2026-05-04 20:37 | 11.85777 | -179.71620 | 31979 ft | 427 kts | 244° |
| 2026-05-04 20:37 | 11.82971 | -179.76978 | 31979 ft | 427 kts | 244° |
| 2026-05-04 20:38 | 11.80165 | -179.82333 | 31980 ft | 427 kts | 244° |
| 2026-05-04 20:38 | 11.77359 | -179.87687 | 31981 ft | 428 kts | 244° |
| 2026-05-04 20:39 | 11.74550 | -179.93042 | 31977 ft | 427 kts | 244° |
| 2026-05-04 20:39 | 11.71746 | -179.98385 | 31977 ft | 427 kts | 244° |
| 2026-05-04 20:40 | 11.68795 | 179.96340 | 31978 ft | 428 kts | 243° |
| 2026-05-04 20:40 | 11.65850 | 179.91108 | 31976 ft | 428 kts | 243° |
| 2026-05-04 20:41 | 11.62891 | 179.85842 | 31977 ft | 428 kts | 243° |
| 2026-05-04 20:41 | 11.59929 | 179.80573 | 31973 ft | 428 kts | 243° |
| 2026-05-04 20:42 | 11.56965 | 179.75303 | 31977 ft | 428 kts | 243° |
| 2026-05-04 20:42 | 11.54002 | 179.70038 | 31977 ft | 428 kts | 243° |
| 2026-05-04 20:43 | 11.51038 | 179.64774 | 31976 ft | 428 kts | 243° |
| 2026-05-04 20:43 | 11.48092 | 179.59545 | 31977 ft | 428 kts | 243° |
| 2026-05-04 20:44 | 11.45124 | 179.54279 | 31977 ft | 428 kts | 243° |
| 2026-05-04 20:44 | 11.42155 | 179.49013 | 31977 ft | 428 kts | 243° |
| 2026-05-04 20:45 | 11.39183 | 179.43747 | 31973 ft | 428 kts | 243° |
| 2026-05-04 20:45 | 11.36211 | 179.38483 | 31974 ft | 428 kts | 243° |
| 2026-05-04 20:46 | 11.33239 | 179.33221 | 31975 ft | 428 kts | 243° |
| 2026-05-04 20:46 | 11.30265 | 179.27957 | 31966 ft | 429 kts | 243° |
| 2026-05-04 20:47 | 11.27287 | 179.22691 | 31969 ft | 429 kts | 243° |
| 2026-05-04 20:47 | 11.24307 | 179.17424 | 31974 ft | 430 kts | 243° |
| 2026-05-04 20:48 | 11.21318 | 179.12142 | 31974 ft | 430 kts | 243° |
| 2026-05-04 20:48 | 11.18333 | 179.06873 | 31971 ft | 430 kts | 243° |
| 2026-05-04 20:49 | 11.15345 | 179.01598 | 31971 ft | 430 kts | 243° |
| 2026-05-04 20:49 | 11.12374 | 178.96358 | 31973 ft | 430 kts | 243° |
| 2026-05-04 20:50 | 11.09388 | 178.91093 | 31968 ft | 430 kts | 243° |
| 2026-05-04 20:50 | 11.06396 | 178.85821 | 31968 ft | 430 kts | 243° |
| 2026-05-04 20:51 | 11.03405 | 178.80552 | 31968 ft | 430 kts | 243° |
| 2026-05-04 20:51 | 11.00410 | 178.75279 | 31966 ft | 430 kts | 243° |
| 2026-05-04 20:52 | 10.97412 | 178.70005 | 31965 ft | 430 kts | 243° |
| 2026-05-04 20:52 | 10.94414 | 178.64733 | 31967 ft | 430 kts | 243° |
| 2026-05-04 20:53 | 10.91412 | 178.59455 | 31968 ft | 432 kts | 243° |
| 2026-05-04 20:53 | 10.88420 | 178.54198 | 31964 ft | 432 kts | 243° |
| 2026-05-04 20:54 | 10.85407 | 178.48909 | 31963 ft | 432 kts | 243° |
| 2026-05-04 20:54 | 10.82395 | 178.43623 | 31963 ft | 432 kts | 243° |
| 2026-05-04 20:55 | 10.79377 | 178.38328 | 31966 ft | 432 kts | 243° |
| 2026-05-04 20:55 | 10.76361 | 178.33039 | 31966 ft | 432 kts | 243° |
| 2026-05-04 20:56 | 10.73341 | 178.27747 | 31965 ft | 432 kts | 243° |
| 2026-05-04 20:56 | 10.70323 | 178.22460 | 31964 ft | 432 kts | 243° |
| 2026-05-04 20:57 | 10.67303 | 178.17173 | 31963 ft | 432 kts | 243° |
| 2026-05-04 20:57 | 10.64300 | 178.11919 | 31963 ft | 432 kts | 243° |
| 2026-05-04 20:58 | 10.61281 | 178.06637 | 31963 ft | 433 kts | 243° |
| 2026-05-04 20:58 | 10.58254 | 178.01347 | 31963 ft | 433 kts | 243° |
| 2026-05-04 20:59 | 10.55227 | 177.96057 | 31953 ft | 434 kts | 242° |
| 2026-05-04 20:59 | 10.52183 | 177.90740 | 31959 ft | 435 kts | 242° |
| 2026-05-04 21:00 | 10.49137 | 177.85424 | 31963 ft | 435 kts | 242° |
| 2026-05-04 21:00 | 10.46091 | 177.80109 | 31963 ft | 435 kts | 242° |
| 2026-05-04 21:01 | 10.43043 | 177.74794 | 31961 ft | 435 kts | 242° |
| 2026-05-04 21:01 | 10.39999 | 177.69486 | 31954 ft | 435 kts | 242° |
| 2026-05-04 21:02 | 10.36947 | 177.64171 | 31957 ft | 435 kts | 242° |
| 2026-05-04 21:02 | 10.33894 | 177.58854 | 31960 ft | 435 kts | 242° |
| 2026-05-04 21:03 | 10.30864 | 177.53580 | 31957 ft | 435 kts | 242° |
| 2026-05-04 21:03 | 10.27812 | 177.48270 | 31957 ft | 435 kts | 242° |
| 2026-05-04 21:04 | 10.24761 | 177.42964 | 31954 ft | 435 kts | 242° |
| 2026-05-04 21:04 | 10.21705 | 177.37653 | 31953 ft | 435 kts | 242° |
| 2026-05-04 21:05 | 10.18654 | 177.32353 | 31943 ft | 435 kts | 242° |
| 2026-05-04 21:05 | 10.15585 | 177.27023 | 31957 ft | 438 kts | 242° |
| 2026-05-04 21:06 | 10.12513 | 177.21691 | 31952 ft | 437 kts | 242° |
| 2026-05-04 21:06 | 10.09442 | 177.16363 | 31950 ft | 437 kts | 242° |
| 2026-05-04 21:07 | 10.06370 | 177.11034 | 31953 ft | 437 kts | 242° |
| 2026-05-04 21:07 | 10.03298 | 177.05709 | 31946 ft | 437 kts | 242° |
| 2026-05-04 21:08 | 10.00240 | 177.00381 | 31949 ft | 437 kts | 245° |
| 2026-05-04 21:08 | 9.97534 | 176.94869 | 31960 ft | 436 kts | 245° |
| 2026-05-04 21:09 | 9.94800 | 176.89376 | 31951 ft | 436 kts | 245° |
| 2026-05-04 21:09 | 9.92059 | 176.83884 | 31944 ft | 436 kts | 245° |
| 2026-05-04 21:10 | 9.89314 | 176.78389 | 31953 ft | 436 kts | 245° |
| 2026-05-04 21:10 | 9.86588 | 176.72936 | 31953 ft | 436 kts | 245° |
| 2026-05-04 21:11 | 9.83843 | 176.67446 | 31949 ft | 436 kts | 245° |
| 2026-05-04 21:11 | 9.81094 | 176.61951 | 31937 ft | 437 kts | 245° |
| 2026-05-04 21:12 | 9.78342 | 176.56452 | 31946 ft | 438 kts | 245° |
| 2026-05-04 21:12 | 9.75581 | 176.50939 | 31944 ft | 438 kts | 245° |
| 2026-05-04 21:13 | 9.72821 | 176.45430 | 31939 ft | 438 kts | 245° |
| 2026-05-04 21:13 | 9.70061 | 176.39925 | 31943 ft | 438 kts | 245° |
| 2026-05-04 21:14 | 9.67301 | 176.34420 | 31944 ft | 438 kts | 245° |
| 2026-05-04 21:14 | 9.64543 | 176.28923 | 31935 ft | 438 kts | 245° |
| 2026-05-04 21:15 | 9.61780 | 176.23420 | 31937 ft | 438 kts | 245° |
| 2026-05-04 21:15 | 9.59017 | 176.17918 | 31932 ft | 438 kts | 245° |
| 2026-05-04 21:16 | 9.56717 | 176.13340 | 31945 ft | 439 kts | 245° |
| 2026-05-04 21:16 | 9.53492 | 176.06926 | 31936 ft | 439 kts | 245° |
| 2026-05-04 21:17 | 9.51173 | 176.02315 | 31942 ft | 439 kts | 245° |
| 2026-05-04 21:17 | 9.48402 | 175.96808 | 31939 ft | 439 kts | 245° |
| 2026-05-04 21:18 | 9.45628 | 175.91297 | 31937 ft | 439 kts | 245° |
| 2026-05-04 21:18 | 9.42857 | 175.85795 | 31928 ft | 439 kts | 245° |
| 2026-05-04 21:19 | 9.40074 | 175.80270 | 31930 ft | 441 kts | 245° |
| 2026-05-04 21:19 | 9.37288 | 175.74745 | 31944 ft | 441 kts | 245° |
| 2026-05-04 21:20 | 9.34500 | 175.69217 | 31924 ft | 440 kts | 245° |
| 2026-05-04 21:20 | 9.31712 | 175.63690 | 31939 ft | 441 kts | 245° |
| 2026-05-04 21:21 | 9.28940 | 175.58199 | 31934 ft | 440 kts | 245° |
| 2026-05-04 21:21 | 9.26153 | 175.52679 | 31941 ft | 441 kts | 245° |
| 2026-05-04 21:22 | 9.23360 | 175.47153 | 31933 ft | 440 kts | 245° |
| 2026-05-04 21:22 | 9.20567 | 175.41627 | 31923 ft | 441 kts | 244° |
| 2026-05-04 21:23 | 9.17773 | 175.36102 | 31931 ft | 441 kts | 244° |
| 2026-05-04 21:23 | 9.14998 | 175.30619 | 31926 ft | 441 kts | 245° |
| 2026-05-04 21:24 | 9.12200 | 175.25092 | 31926 ft | 441 kts | 244° |
| 2026-05-04 21:24 | 9.09405 | 175.19571 | 31924 ft | 441 kts | 245° |
| 2026-05-04 21:25 | 9.06609 | 175.14053 | 31923 ft | 441 kts | 244° |
| 2026-05-04 21:25 | 9.03810 | 175.08529 | 31932 ft | 441 kts | 244° |
| 2026-05-04 21:26 | 9.01027 | 175.03044 | 31930 ft | 442 kts | 244° |
| 2026-05-04 21:26 | 8.98225 | 174.97519 | 31929 ft | 441 kts | 244° |
| 2026-05-04 21:27 | 8.95421 | 174.91995 | 31933 ft | 442 kts | 244° |
| 2026-05-04 21:27 | 8.92614 | 174.86467 | 31931 ft | 441 kts | 244° |
| 2026-05-04 21:28 | 8.89811 | 174.80950 | 31930 ft | 442 kts | 244° |
| 2026-05-04 21:28 | 8.87006 | 174.75430 | 31915 ft | 441 kts | 244° |
| 2026-05-04 21:29 | 8.84198 | 174.69909 | 31926 ft | 442 kts | 244° |
| 2026-05-04 21:29 | 8.81392 | 174.64394 | 31920 ft | 441 kts | 244° |
| 2026-05-04 21:30 | 8.78582 | 174.58870 | 31928 ft | 442 kts | 244° |
| 2026-05-04 21:30 | 8.75772 | 174.53352 | 31927 ft | 441 kts | 244° |
| 2026-05-04 21:31 | 8.71572 | 174.45107 | 31914 ft | 441 kts | 244° |
| 2026-05-04 21:32 | 8.68762 | 174.39592 | 31928 ft | 442 kts | 244° |
| 2026-05-04 21:32 | 8.65948 | 174.34075 | 31918 ft | 441 kts | 244° |
| 2026-05-04 21:33 | 8.63134 | 174.28557 | 31923 ft | 442 kts | 244° |
| 2026-05-04 21:33 | 8.60319 | 174.23042 | 31924 ft | 441 kts | 244° |
| 2026-05-04 21:34 | 8.57503 | 174.17526 | 31920 ft | 442 kts | 244° |
| 2026-05-04 21:34 | 8.54688 | 174.12015 | 31920 ft | 441 kts | 244° |
| 2026-05-04 21:35 | 8.51870 | 174.06500 | 31925 ft | 441 kts | 244° |
| 2026-05-04 21:35 | 8.49058 | 174.01000 | 31921 ft | 442 kts | 244° |
| 2026-05-04 21:36 | 8.46238 | 173.95486 | 31921 ft | 441 kts | 244° |
| 2026-05-04 21:36 | 8.43421 | 173.89981 | 31917 ft | 442 kts | 244° |
| 2026-05-04 21:37 | 8.40622 | 173.84513 | 31918 ft | 440 kts | 244° |
| 2026-05-04 21:37 | 8.37808 | 173.79017 | 31923 ft | 442 kts | 244° |
| 2026-05-04 21:38 | 8.34992 | 173.73521 | 31914 ft | 440 kts | 244° |
| 2026-05-04 21:38 | 8.32175 | 173.68023 | 31921 ft | 441 kts | 244° |
| 2026-05-04 21:39 | 8.29357 | 173.62528 | 31915 ft | 440 kts | 244° |
| 2026-05-04 21:39 | 8.26547 | 173.57049 | 31914 ft | 443 kts | 244° |
| 2026-05-04 21:40 | 8.23728 | 173.51556 | 31911 ft | 441 kts | 243° |
| 2026-05-04 21:40 | 8.20894 | 173.46033 | 31920 ft | 442 kts | 244° |
| 2026-05-04 21:41 | 8.18072 | 173.40539 | 31913 ft | 443 kts | 243° |
| 2026-05-04 21:41 | 8.15235 | 173.35015 | 31918 ft | 441 kts | 243° |
| 2026-05-04 21:42 | 8.12409 | 173.29518 | 31911 ft | 444 kts | 243° |
| 2026-05-04 21:42 | 8.09577 | 173.24010 | 31910 ft | 441 kts | 243° |
| 2026-05-04 21:43 | 8.06744 | 173.18502 | 31918 ft | 443 kts | 243° |
| 2026-05-04 21:43 | 8.03914 | 173.13004 | 31905 ft | 441 kts | 243° |
| 2026-05-04 21:44 | 8.01097 | 173.07530 | 31916 ft | 443 kts | 243° |
| 2026-05-04 21:44 | 7.98268 | 173.02037 | 31907 ft | 441 kts | 243° |
| 2026-05-04 21:45 | 7.95423 | 172.96515 | 31913 ft | 443 kts | 243° |
| 2026-05-04 21:45 | 7.92592 | 172.91023 | 31907 ft | 442 kts | 243° |
| 2026-05-04 21:46 | 7.89750 | 172.85509 | 31917 ft | 440 kts | 243° |
| 2026-05-04 21:46 | 7.86938 | 172.80059 | 31913 ft | 443 kts | 243° |
| 2026-05-04 21:47 | 7.84336 | 172.75014 | 31892 ft | 439 kts | 243° |
| 2026-05-04 21:47 | 7.82936 | 172.72304 | 31456 ft | 433 kts | 243° |
| 2026-05-04 21:47 | 7.81553 | 172.69623 | 31018 ft | 429 kts | 243° |
| 2026-05-04 21:47 | 7.80177 | 172.66959 | 30586 ft | 430 kts | 243° |
| 2026-05-04 21:48 | 7.78793 | 172.64279 | 30049 ft | 432 kts | 243° |
| 2026-05-04 21:48 | 7.77402 | 172.61585 | 29410 ft | 433 kts | 243° |
| 2026-05-04 21:48 | 7.76009 | 172.58890 | 28817 ft | 432 kts | 243° |
| 2026-05-04 21:48 | 7.74628 | 172.56216 | 28302 ft | 428 kts | 243° |
| 2026-05-04 21:49 | 7.73255 | 172.53562 | 27773 ft | 426 kts | 243° |
| 2026-05-04 21:49 | 7.71891 | 172.50921 | 27255 ft | 424 kts | 243° |
| 2026-05-04 21:49 | 7.70535 | 172.48298 | 26742 ft | 421 kts | 242° |
| 2026-05-04 21:49 | 7.69182 | 172.45683 | 26232 ft | 420 kts | 242° |
| 2026-05-04 21:50 | 7.67836 | 172.43080 | 25720 ft | 418 kts | 242° |
| 2026-05-04 21:50 | 7.66494 | 172.40485 | 25214 ft | 417 kts | 242° |
| 2026-05-04 21:50 | 7.65151 | 172.37890 | 24719 ft | 416 kts | 242° |
| 2026-05-04 21:50 | 7.63814 | 172.35305 | 24224 ft | 415 kts | 242° |
| 2026-05-04 21:51 | 7.62479 | 172.32726 | 23741 ft | 415 kts | 242° |
| 2026-05-04 21:51 | 7.61146 | 172.30150 | 23204 ft | 414 kts | 242° |
| 2026-05-04 21:51 | 7.59815 | 172.27580 | 22681 ft | 413 kts | 242° |
| 2026-05-04 21:51 | 7.58492 | 172.25025 | 22199 ft | 410 kts | 241° |
| 2026-05-04 21:52 | 7.57179 | 172.22488 | 21748 ft | 406 kts | 242° |
| 2026-05-04 21:52 | 7.55876 | 172.19975 | 21295 ft | 404 kts | 242° |
| 2026-05-04 21:52 | 7.54582 | 172.17476 | 20845 ft | 401 kts | 241° |
| 2026-05-04 21:52 | 7.53295 | 172.14991 | 20413 ft | 399 kts | 241° |
| 2026-05-04 21:53 | 7.52013 | 172.12517 | 19969 ft | 397 kts | 241° |
| 2026-05-04 21:53 | 7.50737 | 172.10056 | 19540 ft | 395 kts | 242° |
| 2026-05-04 21:53 | 7.49470 | 172.07612 | 19123 ft | 393 kts | 242° |
| 2026-05-04 21:53 | 7.48223 | 172.05207 | 18711 ft | 391 kts | 241° |
| 2026-05-04 21:54 | 7.46966 | 172.02781 | 18294 ft | 390 kts | 240° |
| 2026-05-04 21:54 | 7.45713 | 172.00366 | 17840 ft | 388 kts | 242° |
| 2026-05-04 21:54 | 7.44467 | 171.97964 | 17406 ft | 385 kts | 242° |
| 2026-05-04 21:54 | 7.43233 | 171.95584 | 17002 ft | 382 kts | 240° |
| 2026-05-04 21:55 | 7.42007 | 171.93224 | 16595 ft | 379 kts | 241° |
| 2026-05-04 21:55 | 7.40788 | 171.90874 | 16198 ft | 376 kts | 240° |
| 2026-05-04 21:55 | 7.39580 | 171.88546 | 15804 ft | 374 kts | 241° |
| 2026-05-04 21:55 | 7.38380 | 171.86235 | 15412 ft | 371 kts | 241° |
| 2026-05-04 21:56 | 7.37185 | 171.83933 | 15017 ft | 369 kts | 241° |
| 2026-05-04 21:56 | 7.36000 | 171.81651 | 14629 ft | 367 kts | 240° |
| 2026-05-04 21:56 | 7.34820 | 171.79380 | 14235 ft | 365 kts | 240° |
| 2026-05-04 21:56 | 7.33645 | 171.77118 | 13859 ft | 363 kts | 240° |
| 2026-05-04 21:57 | 7.32475 | 171.74866 | 13392 ft | 363 kts | 240° |
| 2026-05-04 21:57 | 7.31306 | 171.72609 | 12947 ft | 362 kts | 242° |
| 2026-05-04 21:57 | 7.30468 | 171.70210 | 12469 ft | 364 kts | 253° |
| 2026-05-04 21:57 | 7.29751 | 171.67772 | 12096 ft | 361 kts | 250° |
| 2026-05-04 21:58 | 7.29008 | 171.65363 | 11710 ft | 359 kts | 251° |
| 2026-05-04 21:58 | 7.28255 | 171.62972 | 11325 ft | 358 kts | 250° |
| 2026-05-04 21:58 | 7.27493 | 171.60592 | 10942 ft | 356 kts | 249° |
| 2026-05-04 21:58 | 7.26730 | 171.58226 | 10606 ft | 353 kts | 249° |
| 2026-05-04 21:59 | 7.25978 | 171.55899 | 10426 ft | 345 kts | 250° |
| 2026-05-04 21:59 | 7.25244 | 171.53633 | 10282 ft | 336 kts | 249° |
| 2026-05-04 21:59 | 7.24527 | 171.51422 | 10125 ft | 328 kts | 249° |
| 2026-05-04 21:59 | 7.23826 | 171.49262 | 9906 ft | 322 kts | 250° |
| 2026-05-04 22:00 | 7.23130 | 171.47114 | 9594 ft | 324 kts | 250° |
| 2026-05-04 22:00 | 7.22426 | 171.44947 | 9156 ft | 327 kts | 250° |
| 2026-05-04 22:00 | 7.21722 | 171.42771 | 8764 ft | 328 kts | 250° |
| 2026-05-04 22:00 | 7.21024 | 171.40621 | 8430 ft | 327 kts | 250° |
| 2026-05-04 22:01 | 7.20318 | 171.38443 | 8059 ft | 327 kts | 250° |
| 2026-05-04 22:01 | 7.19612 | 171.36268 | 7703 ft | 326 kts | 250° |
| 2026-05-04 22:01 | 7.18907 | 171.34096 | 7356 ft | 326 kts | 250° |
| 2026-05-04 22:01 | 7.18204 | 171.31928 | 7001 ft | 326 kts | 250° |
| 2026-05-04 22:02 | 7.17500 | 171.29763 | 6642 ft | 326 kts | 250° |
| 2026-05-04 22:02 | 7.16795 | 171.27592 | 6258 ft | 326 kts | 250° |
| 2026-05-04 22:02 | 7.16088 | 171.25419 | 5874 ft | 327 kts | 250° |
| 2026-05-04 22:02 | 7.15380 | 171.23237 | 5483 ft | 328 kts | 250° |
| 2026-05-04 22:03 | 7.14670 | 171.21053 | 5098 ft | 330 kts | 250° |
| 2026-05-04 22:03 | 7.13951 | 171.18843 | 4763 ft | 333 kts | 250° |
| 2026-05-04 22:03 | 7.13163 | 171.16618 | 4497 ft | 342 kts | 249° |
| 2026-05-04 22:03 | 7.12435 | 171.14276 | 3842 ft | 359 kts | 251° |
| 2026-05-04 22:04 | 7.11680 | 171.11963 | 4021 ft | 339 kts | 246° |
| 2026-05-04 22:04 | 7.10412 | 171.10072 | 3979 ft | 317 kts | 217° |
| 2026-05-04 22:04 | 7.08585 | 171.09054 | 4002 ft | 289 kts | 189° |
| 2026-05-04 22:04 | 7.06670 | 171.08911 | 3875 ft | 268 kts | 166° |
| 2026-05-04 22:05 | 7.04949 | 171.09466 | 3586 ft | 254 kts | 144° |
| 2026-05-04 22:05 | 7.03731 | 171.10622 | 3287 ft | 233 kts | 118° |
| 2026-05-04 22:05 | 7.03228 | 171.12101 | 2980 ft | 219 kts | 94° |
| 2026-05-04 22:05 | 7.03369 | 171.13583 | 2627 ft | 214 kts | 80° |
| 2026-05-04 22:06 | 7.03641 | 171.15008 | 2379 ft | 199 kts | 78° |
| 2026-05-04 22:06 | 7.03913 | 171.16317 | 2174 ft | 183 kts | 78° |
| 2026-05-04 22:06 | 7.04180 | 171.17532 | 1875 ft | 175 kts | 78° |
| 2026-05-04 22:06 | 7.04418 | 171.18672 | 1618 ft | 156 kts | 77° |
| 2026-05-04 22:07 | 7.04651 | 171.19669 | 1388 ft | 137 kts | 76° |
| 2026-05-04 22:07 | 7.04877 | 171.20590 | 1219 ft | 136 kts | 75° |
| 2026-05-04 22:07 | 7.05102 | 171.21512 | 981 ft | 136 kts | 75° |
| 2026-05-04 22:07 | 7.05334 | 171.22458 | 810 ft | 142 kts | 74° |
| 2026-05-04 22:08 | 7.05572 | 171.23423 | 658 ft | 141 kts | 76° |
| 2026-05-04 22:08 | 7.05819 | 171.24380 | 415 ft | 141 kts | 75° |
| 2026-05-04 22:08 | 7.06041 | 171.25322 | 234 ft | 136 kts | 74° |
| 2026-05-04 22:08 | 7.06263 | 171.26246 | 38 ft | 136 kts | 73° |
| 2026-05-04 22:09 | 7.06475 | 171.27108 | 6 ft | 106 kts | 77° |
| 2026-05-04 22:09 | 7.06565 | 171.27476 | 4 ft | 59 kts | 76° |
| 2026-05-04 22:09 | 7.06628 | 171.27739 | 4 ft | 33 kts | 77° |
| 2026-05-04 22:09 | 7.06683 | 171.27960 | 3 ft | 32 kts | 76° |
| 2026-05-04 22:10 | 7.06741 | 171.28084 | 5 ft | 4 kts | 354° |
| 2026-05-04 22:10 | 7.06761 | 171.28081 | 5 ft | 3 kts | 350° |
| 2026-05-04 22:10 | 7.06784 | 171.28077 | 6 ft | 4 kts | 350° |
| 2026-05-04 22:10 | 7.06796 | 171.28075 | 6 ft | 0 kts | 350° |
| 2026-05-04 22:11 | 7.06797 | 171.28075 | 6 ft | 1 kts | 352° |
| 2026-05-04 22:11 | 7.06801 | 171.28077 | 6 ft | 0 kts | 39° |
| 2026-05-04 22:11 | 7.06801 | 171.28078 | 6 ft | 0 kts | 44° |
| 2026-05-04 22:11 | 7.06808 | 171.28087 | 9 ft | 5 kts | 50° |
| 2026-05-04 22:12 | 7.06817 | 171.28096 | 8 ft | 0 kts | 50° |